Weather observations for the past three days for
The Florida Keys - Marathon International Airport
Imperial (Metric)
Date Time (edt) Wind (mph) Vis. (mi.) Weather Sky Cond. Temperature (ºF) Relative Humidity Wind Chill (°F) Heat Index (°F) Pressure Precipitation (in)
Air Dwpt 6 hour altimeter (in) sea level (mb) 1 hr 3 hr 6 hr
Max. Min.
03 20:53 Calm 10.00 Partly Cloudy SCT023 86 78.1 77% 98 29.95 1014.1
03 19:53 S 3 10.00 Fair CLR 87.1 78.1 90 87.1 75% 100 29.94 1013.9
03 18:53 S 5 10.00 A Few Clouds FEW028 88 78.1 73% 102 29.93 1013.6
03 17:53 S 8 10.00 Mostly Cloudy FEW027 BKN036 89.1 78.1 70% 103 29.92 1013.2
03 16:53 S 8 10.00 A Few Clouds FEW028 89.1 78.1 70% 103 29.91 1012.8
03 15:53 S 6 10.00 Fair CLR 90 77 66% 103 29.93 1013.4
03 14:53 S 7 10.00 Fair CLR 90 77 66% 103 29.93 1013.6
03 13:53 SW 8 10.00 A Few Clouds FEW025 90 78.1 90 84.9 68% 105 29.94 1013.9
03 12:53 Vrbl 6 10.00 A Few Clouds FEW023 90 78.1 68% 105 29.97 1014.8
03 11:53 S 8 10.00 Fair CLR 89.1 77 68% 102 29.98 1015.3
03 10:53 S 7 10.00 Fair CLR 89.1 77 68% 102 29.97 1014.9
03 09:53 SE 8 10.00 Partly Cloudy FEW024 SCT031 88 78.1 73% 102 29.96 1014.6
03 08:53 S 6 10.00 A Few Clouds FEW024 87.1 77 72% 99 29.96 1014.6
03 07:53 S 3 10.00 A Few Clouds FEW023 FEW029 84.9 77 86 82.9 77% 95 29.95 1014.0
03 06:53 S 5 10.00 Fair CLR 84.9 77 77% 95 29.92 1013.0
03 05:53 S 6 10.00 A Few Clouds FEW024 84.9 77 77% 95 29.91 1012.7
03 04:53 Vrbl 3 10.00 Fair CLR 84.9 77 77% 95 29.91 1012.7
03 03:53 Calm 10.00 Partly Cloudy SCT026 SCT032 84.9 77 77% 95 29.91 1012.7
03 02:53 SE 3 10.00 Fair CLR 84.9 77 77% 95 29.92 1013.0
03 01:53 SE 5 10.00 Fair CLR 82.9 77 86 82.9 82% 92 29.93 1013.6
03 00:53 Calm 10.00 A Few Clouds FEW027 84 77 80% 94 29.95 1014.3
02 23:53 Calm 10.00 A Few Clouds FEW027 84 77 80% 94 29.96 1014.6
02 22:53 Calm 10.00 Fair CLR 84.9 77 77% 95 29.96 1014.6
02 21:53 Calm 10.00 Fair CLR 84.9 77 77% 95 29.96 1014.4
02 20:53 Calm 10.00 Fair CLR 84.9 75.9 75% 94 29.94 1013.7
02 19:53 Calm 10.00 Fair CLR 86 77 89.1 84 75% 97 29.93 1013.3 0.01
02 18:53 W 6 10.00 Fair CLR 87.1 78.1 75% 100 29.92 1013.1
02 17:53 Vrbl 3 10.00 Fair CLR 88 77 70% 100 29.92 1013.3
02 16:53 Vrbl 3 10.00 Overcast FEW022 SCT050 OVC065 87.1 78.1 75% 100 29.94 1013.7 0.01
02 15:53 Vrbl 3 10.00 A Few Clouds FEW029 FEW042 88 78.1 73% 102 29.94 1013.9
02 14:53 NW 6 10.00 Light Rain SCT027 BKN034 OVC044 84 80.1 88% 97 29.96 1014.4 0.01
02 13:53 NE 5 4.00 Thunderstorm in Vicinity Light Rain SCT034 BKN046 OVC100 84.9 75.9 89.1 84 75% 94 29.98 1015.1 0.08 0.08
02 11:53 S 6 10.00 Overcast BKN030 OVC039 87.1 77 72% 99 30 1015.7
02 10:53 SE 5 10.00 Mostly Cloudy BKN046 BKN070 87.1 77 72% 99 30 1015.8
02 09:53 Calm 10.00 Fair CLR 87.1 75.9 70% 98 29.98 1015.2
02 08:53 Calm 10.00 Fair CLR 87.1 75.9 70% 98 29.98 1015.1
02 07:53 Calm 10.00 Fair CLR 84 77 84.9 82.9 80% 94 29.98 1015.0
02 06:53 Calm 10.00 Fair CLR 84 75.9 77% 93 29.96 1014.3
02 05:53 Calm 10.00 Fair CLR 84 75.9 77% 93 29.95 1014.0
02 04:53 Calm 10.00 Fair CLR 82.9 77 82% 92 29.93 1013.6
02 03:53 E 3 10.00 Fair CLR 84 77 80% 94 29.95 1014.1
02 02:53 Calm 10.00 Fair CLR 82.9 77 82% 92 29.96 1014.3
02 01:53 E 5 10.00 Fair CLR 84.9 77 87.1 84 77% 95 29.96 1014.6
02 00:53 E 6 10.00 A Few Clouds FEW027 84.9 75.9 75% 94 29.98 1015.1
01 23:53 NE 5 10.00 Fair CLR 84.9 75.9 75% 94 29.98 1015.1
01 22:53 NE 5 10.00 Fair CLR 84.9 77 77% 95 29.99 1015.5
01 21:53 Vrbl 5 10.00 Fair CLR 84.9 77 77% 95 29.98 1015.0
01 20:53 Vrbl 5 10.00 Partly Cloudy SCT029 SCT050 87.1 77 72% 99 29.97 1014.7
01 19:53 N 5 10.00 Fair CLR 87.1 75 91 87.1 67% 97 29.96 1014.5
01 18:53 Vrbl 3 10.00 Fair CLR 88 75.9 68% 99 29.97 1014.9
01 17:53 SW 3 10.00 Fair CLR 88 75 66% 98 29.95 1014.2
01 16:53 SE 6 10.00 Fair CLR 88 75 66% 98 29.93 1013.6
01 15:53 SE 6 10.00 Fair CLR 89.1 73 59% 97 29.96 1014.3
01 14:53 SE 7 10.00 Partly Cloudy SCT024 88 78.1 73% 102 29.98 1015.0
01 13:53 Vrbl 5 10.00 Fair CLR 90 79 91.9 84.9 70% 106 29.99 1015.6
01 12:53 NE 7 10.00 Fair CLR 91 78.1 66% 106 30.01 1016.1
01 11:53 Vrbl 3 10.00 Fair CLR 90 78.1 68% 105 30.01 1016.3
01 10:53 Vrbl 3 10.00 Fair CLR 89.1 79 72% 105 30.01 1016.1
01 09:53 Vrbl 5 10.00 Fair CLR 88 79 75% 103 30 1015.8
01 08:53 NE 3 10.00 Fair CLR 87.1 77 72% 99 29.99 1015.4
01 07:53 NE 3 10.00 Fair CLR 84.9 78.1 84.9 82 80% 97 29.97 1014.8
01 06:53 Calm 10.00 Fair CLR 82 77 85% 90 29.96 1014.3
01 05:53 Calm 10.00 Fair CLR 84 77 80% 94 29.95 1014.0
01 04:53 E 5 10.00 Fair CLR 82.9 77 82% 92 29.94 1013.9
01 03:53 E 3 10.00 Fair CLR 82.9 78.1 85% 93 29.95 1014.1
01 02:53 NE 6 10.00 Fair CLR 84 78.1 82% 95 29.96 1014.6
01 01:53 E 8 10.00 A Few Clouds FEW024 FEW035 84.9 78.1 86 84.9 80% 97 29.98 1015.0
01 00:53 NE 6 10.00 A Few Clouds FEW034 84.9 78.1 80% 97 29.99 1015.4
31 23:53 NE 5 10.00 Fair CLR 84.9 75.9 75% 94 30 1016.0
31 22:53 NE 6 10.00 Fair CLR 86 75 70% 95 30.01 1016.3
31 21:53 NE 5 10.00 Fair CLR 86 77 75% 97 30.01 1016.0
Date Time (edt) Wind (mph) Vis. (mi.) Weather Sky Cond. Air Dwpt Max. Min. Relative Humidity Wind Chill (°F) Heat Index (°F) altimeter (in) sea level (mb) 1 hr 3 hr 6 hr
6 hour
Temperature (ºF) Pressure Precipitation (in)